Highland, Minnesota
Current Conditions -  °F | °C
As of 4:34 AM on Saturday 22 Nov 2014 (Local Time) from KFKA Reporting Station
Haze Haze  
Wind Chill: 23°   Ceiling: 200
Heat Index: 32°   Visibility: 1.7mi
Dew Point: 31°   Wind: 12mph
Humidity: 96%   Direction: 200°SSW
Pressure: 29.87"   Gusts: NA
Location:  43.7165°N, 91.9871°W
Report Text: KFKA 221034Z AUTO 20010KT 1 3/4SM BR OVC002 00/00 A2987 RMK AO2 T00001005
Loading
Personal Weather Stations






























Interactive Weather Map New forecast layout! Learn more

10-Day Weather Forecast

Advertisements
Track Severe Weather on mobile